sensor_id;sensor_type;location;lat;lon;timestamp;temperature;humidity
8910;DHT22;4490;49.072;8.804;2023-03-14T00:02:20;12.10;99.90
8910;DHT22;4490;49.072;8.804;2023-03-14T00:04:46;12.10;99.90
8910;DHT22;4490;49.072;8.804;2023-03-14T00:07:13;12.10;99.90
8910;DHT22;4490;49.072;8.804;2023-03-14T00:09:38;12.10;99.90
8910;DHT22;4490;49.072;8.804;2023-03-14T00:12:04;12.10;99.90
8910;DHT22;4490;49.072;8.804;2023-03-14T00:14:31;12.10;99.90
8910;DHT22;4490;49.072;8.804;2023-03-14T00:16:57;12.10;99.90
8910;DHT22;4490;49.072;8.804;2023-03-14T00:19:22;12.10;99.90
8910;DHT22;4490;49.072;8.804;2023-03-14T00:21:48;12.10;99.90
8910;DHT22;4490;49.072;8.804;2023-03-14T00:24:14;12.10;99.90
8910;DHT22;4490;49.072;8.804;2023-03-14T00:26:39;12.10;99.90
8910;DHT22;4490;49.072;8.804;2023-03-14T00:29:05;12.10;99.90
8910;DHT22;4490;49.072;8.804;2023-03-14T00:31:31;12.10;99.90
8910;DHT22;4490;49.072;8.804;2023-03-14T00:33:57;12.10;99.90
8910;DHT22;4490;49.072;8.804;2023-03-14T00:36:23;12.10;99.90
8910;DHT22;4490;49.072;8.804;2023-03-14T00:38:50;12.10;99.90
8910;DHT22;4490;49.072;8.804;2023-03-14T00:41:19;12.10;99.90
8910;DHT22;4490;49.072;8.804;2023-03-14T00:43:45;12.10;99.90
8910;DHT22;4490;49.072;8.804;2023-03-14T00:46:11;12.10;99.90
8910;DHT22;4490;49.072;8.804;2023-03-14T00:48:37;12.00;99.90
8910;DHT22;4490;49.072;8.804;2023-03-14T00:51:04;12.00;99.90
8910;DHT22;4490;49.072;8.804;2023-03-14T00:53:30;11.90;99.90
8910;DHT22;4490;49.072;8.804;2023-03-14T00:55:56;11.80;99.90
8910;DHT22;4490;49.072;8.804;2023-03-14T00:58:22;11.80;99.90
8910;DHT22;4490;49.072;8.804;2023-03-14T01:00:47;11.80;99.90
8910;DHT22;4490;49.072;8.804;2023-03-14T01:03:14;11.70;99.90
8910;DHT22;4490;49.072;8.804;2023-03-14T01:05:40;11.70;99.90
8910;DHT22;4490;49.072;8.804;2023-03-14T01:08:06;11.70;99.90
8910;DHT22;4490;49.072;8.804;2023-03-14T01:10:32;11.70;99.90
8910;DHT22;4490;49.072;8.804;2023-03-14T01:12:58;11.70;99.90
8910;DHT22;4490;49.072;8.804;2023-03-14T01:15:24;11.60;99.90
8910;DHT22;4490;49.072;8.804;2023-03-14T01:17:50;11.70;99.90
8910;DHT22;4490;49.072;8.804;2023-03-14T01:20:16;11.70;99.90
8910;DHT22;4490;49.072;8.804;2023-03-14T01:22:42;11.60;99.90
8910;DHT22;4490;49.072;8.804;2023-03-14T01:25:11;11.60;99.90
8910;DHT22;4490;49.072;8.804;2023-03-14T01:27:37;11.60;99.90
8910;DHT22;4490;49.072;8.804;2023-03-14T01:30:03;11.70;99.90
8910;DHT22;4490;49.072;8.804;2023-03-14T01:32:30;11.70;99.90
8910;DHT22;4490;49.072;8.804;2023-03-14T01:34:55;11.60;99.90
8910;DHT22;4490;49.072;8.804;2023-03-14T01:37:21;11.60;99.90
8910;DHT22;4490;49.072;8.804;2023-03-14T01:39:47;11.60;99.90
8910;DHT22;4490;49.072;8.804;2023-03-14T01:42:14;11.60;99.90
8910;DHT22;4490;49.072;8.804;2023-03-14T01:45:53;11.60;99.90
8910;DHT22;4490;49.072;8.804;2023-03-14T01:47:51;11.60;99.90
8910;DHT22;4490;49.072;8.804;2023-03-14T01:50:17;11.60;99.90
8910;DHT22;4490;49.072;8.804;2023-03-14T01:52:46;11.60;99.90
8910;DHT22;4490;49.072;8.804;2023-03-14T01:55:16;11.70;99.90
8910;DHT22;4490;49.072;8.804;2023-03-14T01:58:01;11.60;99.90
8910;DHT22;4490;49.072;8.804;2023-03-14T02:00:28;11.70;99.90
8910;DHT22;4490;49.072;8.804;2023-03-14T02:02:59;11.70;99.90
8910;DHT22;4490;49.072;8.804;2023-03-14T02:05:29;11.70;99.90
8910;DHT22;4490;49.072;8.804;2023-03-14T02:07:59;11.80;99.90
8910;DHT22;4490;49.072;8.804;2023-03-14T02:10:28;11.80;99.90
8910;DHT22;4490;49.072;8.804;2023-03-14T02:12:56;11.80;99.90
8910;DHT22;4490;49.072;8.804;2023-03-14T02:15:25;11.80;99.90
8910;DHT22;4490;49.072;8.804;2023-03-14T02:17:51;11.80;99.90
8910;DHT22;4490;49.072;8.804;2023-03-14T02:20:57;11.80;99.90
8910;DHT22;4490;49.072;8.804;2023-03-14T02:26:20;11.90;99.90
8910;DHT22;4490;49.072;8.804;2023-03-14T02:28:47;11.90;99.90
8910;DHT22;4490;49.072;8.804;2023-03-14T02:31:14;11.90;99.90
8910;DHT22;4490;49.072;8.804;2023-03-14T02:33:40;11.80;99.90
8910;DHT22;4490;49.072;8.804;2023-03-14T02:36:09;11.80;99.90
8910;DHT22;4490;49.072;8.804;2023-03-14T02:38:38;11.80;99.90
8910;DHT22;4490;49.072;8.804;2023-03-14T02:41:07;11.70;99.90
8910;DHT22;4490;49.072;8.804;2023-03-14T02:43:33;11.70;99.90
8910;DHT22;4490;49.072;8.804;2023-03-14T02:46:00;11.70;99.90
8910;DHT22;4490;49.072;8.804;2023-03-14T02:48:31;11.70;99.90
8910;DHT22;4490;49.072;8.804;2023-03-14T02:51:00;11.70;99.90
8910;DHT22;4490;49.072;8.804;2023-03-14T02:53:32;11.70;99.90
8910;DHT22;4490;49.072;8.804;2023-03-14T02:55:58;11.60;99.90
8910;DHT22;4490;49.072;8.804;2023-03-14T02:58:24;11.60;99.90
8910;DHT22;4490;49.072;8.804;2023-03-14T03:00:50;11.60;99.90
8910;DHT22;4490;49.072;8.804;2023-03-14T03:03:16;11.60;99.90
8910;DHT22;4490;49.072;8.804;2023-03-14T03:05:42;11.60;99.90
8910;DHT22;4490;49.072;8.804;2023-03-14T03:08:09;11.60;99.90
8910;DHT22;4490;49.072;8.804;2023-03-14T03:10:35;11.60;99.90
8910;DHT22;4490;49.072;8.804;2023-03-14T03:13:01;11.60;99.90
8910;DHT22;4490;49.072;8.804;2023-03-14T03:15:27;11.60;99.90
8910;DHT22;4490;49.072;8.804;2023-03-14T03:17:53;11.60;99.90
8910;DHT22;4490;49.072;8.804;2023-03-14T03:20:19;11.50;99.90
8910;DHT22;4490;49.072;8.804;2023-03-14T03:22:44;11.50;99.90
8910;DHT22;4490;49.072;8.804;2023-03-14T03:25:10;11.50;99.90
8910;DHT22;4490;49.072;8.804;2023-03-14T03:27:37;11.50;99.90
8910;DHT22;4490;49.072;8.804;2023-03-14T03:30:04;11.50;99.90
8910;DHT22;4490;49.072;8.804;2023-03-14T03:32:30;11.50;99.90
8910;DHT22;4490;49.072;8.804;2023-03-14T03:34:56;11.50;99.90
8910;DHT22;4490;49.072;8.804;2023-03-14T03:37:22;11.60;99.90
8910;DHT22;4490;49.072;8.804;2023-03-14T03:39:50;11.60;99.90
8910;DHT22;4490;49.072;8.804;2023-03-14T03:42:16;11.60;99.90
8910;DHT22;4490;49.072;8.804;2023-03-14T03:44:42;11.60;99.90
8910;DHT22;4490;49.072;8.804;2023-03-14T03:47:08;11.70;99.90
8910;DHT22;4490;49.072;8.804;2023-03-14T03:49:33;11.60;99.90
8910;DHT22;4490;49.072;8.804;2023-03-14T03:51:59;11.70;99.90
8910;DHT22;4490;49.072;8.804;2023-03-14T03:54:25;11.70;99.90
8910;DHT22;4490;49.072;8.804;2023-03-14T03:56:51;11.70;99.90
8910;DHT22;4490;49.072;8.804;2023-03-14T03:59:17;11.70;99.90
8910;DHT22;4490;49.072;8.804;2023-03-14T04:01:43;11.70;99.30
8910;DHT22;4490;49.072;8.804;2023-03-14T04:04:09;11.70;98.70
8910;DHT22;4490;49.072;8.804;2023-03-14T04:06:35;11.70;97.80
8910;DHT22;4490;49.072;8.804;2023-03-14T04:09:01;11.70;96.60
8910;DHT22;4490;49.072;8.804;2023-03-14T04:11:26;11.70;95.80
8910;DHT22;4490;49.072;8.804;2023-03-14T04:13:52;11.70;95.90
8910;DHT22;4490;49.072;8.804;2023-03-14T04:16:21;11.70;94.90
8910;DHT22;4490;49.072;8.804;2023-03-14T04:18:47;11.80;94.70
8910;DHT22;4490;49.072;8.804;2023-03-14T04:21:13;11.80;94.70
8910;DHT22;4490;49.072;8.804;2023-03-14T04:23:38;11.80;94.00
8910;DHT22;4490;49.072;8.804;2023-03-14T04:26:04;11.80;93.50
8910;DHT22;4490;49.072;8.804;2023-03-14T04:28:30;11.80;92.80
8910;DHT22;4490;49.072;8.804;2023-03-14T04:30:56;11.80;92.70
8910;DHT22;4490;49.072;8.804;2023-03-14T04:33:21;11.80;92.30
8910;DHT22;4490;49.072;8.804;2023-03-14T04:35:47;11.80;92.10
8910;DHT22;4490;49.072;8.804;2023-03-14T04:38:13;11.80;92.20
8910;DHT22;4490;49.072;8.804;2023-03-14T04:40:40;11.80;92.00
8910;DHT22;4490;49.072;8.804;2023-03-14T04:43:07;11.80;91.80
8910;DHT22;4490;49.072;8.804;2023-03-14T04:45:35;11.70;91.50
8910;DHT22;4490;49.072;8.804;2023-03-14T04:48:01;11.70;91.30
8910;DHT22;4490;49.072;8.804;2023-03-14T04:50:26;11.70;91.40
8910;DHT22;4490;49.072;8.804;2023-03-14T04:52:52;11.70;91.40
8910;DHT22;4490;49.072;8.804;2023-03-14T04:55:18;11.70;91.10
8910;DHT22;4490;49.072;8.804;2023-03-14T04:57:43;11.60;91.00
8910;DHT22;4490;49.072;8.804;2023-03-14T05:00:10;11.60;91.00
8910;DHT22;4490;49.072;8.804;2023-03-14T05:02:36;11.60;91.00
8910;DHT22;4490;49.072;8.804;2023-03-14T05:05:02;11.60;91.30
8910;DHT22;4490;49.072;8.804;2023-03-14T05:07:28;11.60;90.90
8910;DHT22;4490;49.072;8.804;2023-03-14T05:09:53;11.60;91.10
8910;DHT22;4490;49.072;8.804;2023-03-14T05:12:20;11.60;91.10
8910;DHT22;4490;49.072;8.804;2023-03-14T05:14:46;11.50;91.20
8910;DHT22;4490;49.072;8.804;2023-03-14T05:17:11;11.50;91.00
8910;DHT22;4490;49.072;8.804;2023-03-14T05:19:40;11.50;91.10
8910;DHT22;4490;49.072;8.804;2023-03-14T05:22:06;11.50;90.90
8910;DHT22;4490;49.072;8.804;2023-03-14T05:24:31;11.50;91.00
8910;DHT22;4490;49.072;8.804;2023-03-14T05:26:57;11.50;90.90
8910;DHT22;4490;49.072;8.804;2023-03-14T05:29:23;11.50;91.00
8910;DHT22;4490;49.072;8.804;2023-03-14T05:31:48;11.50;90.90
8910;DHT22;4490;49.072;8.804;2023-03-14T05:34:14;11.60;90.90
8910;DHT22;4490;49.072;8.804;2023-03-14T05:36:39;11.60;91.00
8910;DHT22;4490;49.072;8.804;2023-03-14T05:39:05;11.60;91.00
8910;DHT22;4490;49.072;8.804;2023-03-14T05:41:31;11.60;91.00
8910;DHT22;4490;49.072;8.804;2023-03-14T05:43:56;11.70;91.00
8910;DHT22;4490;49.072;8.804;2023-03-14T05:46:22;11.70;90.80
8910;DHT22;4490;49.072;8.804;2023-03-14T05:48:48;11.70;91.00
8910;DHT22;4490;49.072;8.804;2023-03-14T05:51:13;11.70;91.00
8910;DHT22;4490;49.072;8.804;2023-03-14T05:53:39;11.70;90.90
8910;DHT22;4490;49.072;8.804;2023-03-14T05:56:05;11.70;90.40
8910;DHT22;4490;49.072;8.804;2023-03-14T05:58:31;11.80;90.40
8910;DHT22;4490;49.072;8.804;2023-03-14T06:00:56;11.80;90.00
8910;DHT22;4490;49.072;8.804;2023-03-14T06:03:22;11.80;90.20
8910;DHT22;4490;49.072;8.804;2023-03-14T06:05:50;11.80;90.00
8910;DHT22;4490;49.072;8.804;2023-03-14T06:08:16;11.80;89.90
8910;DHT22;4490;49.072;8.804;2023-03-14T06:10:41;11.80;90.30
8910;DHT22;4490;49.072;8.804;2023-03-14T06:13:07;11.80;89.80
8910;DHT22;4490;49.072;8.804;2023-03-14T06:15:33;11.80;90.10
8910;DHT22;4490;49.072;8.804;2023-03-14T06:17:58;11.80;89.30
8910;DHT22;4490;49.072;8.804;2023-03-14T06:20:24;11.80;89.50
8910;DHT22;4490;49.072;8.804;2023-03-14T06:22:50;11.80;89.90
8910;DHT22;4490;49.072;8.804;2023-03-14T06:25:16;11.70;89.50
8910;DHT22;4490;49.072;8.804;2023-03-14T06:27:41;11.70;89.70
8910;DHT22;4490;49.072;8.804;2023-03-14T06:30:08;11.70;89.80
8910;DHT22;4490;49.072;8.804;2023-03-14T06:32:33;11.70;90.00
8910;DHT22;4490;49.072;8.804;2023-03-14T06:34:59;11.70;89.80
8910;DHT22;4490;49.072;8.804;2023-03-14T06:37:27;11.70;89.90
8910;DHT22;4490;49.072;8.804;2023-03-14T06:39:53;11.60;89.80
8910;DHT22;4490;49.072;8.804;2023-03-14T06:42:20;11.70;89.90
8910;DHT22;4490;49.072;8.804;2023-03-14T06:44:45;11.70;89.50
8910;DHT22;4490;49.072;8.804;2023-03-14T06:47:12;11.70;89.50
8910;DHT22;4490;49.072;8.804;2023-03-14T06:49:37;11.80;89.10
8910;DHT22;4490;49.072;8.804;2023-03-14T06:52:03;11.80;88.90
8910;DHT22;4490;49.072;8.804;2023-03-14T06:54:29;11.90;88.60
8910;DHT22;4490;49.072;8.804;2023-03-14T06:56:54;12.00;89.00
8910;DHT22;4490;49.072;8.804;2023-03-14T06:59:20;12.00;88.50
8910;DHT22;4490;49.072;8.804;2023-03-14T07:01:46;12.10;88.30
8910;DHT22;4490;49.072;8.804;2023-03-14T07:04:13;12.10;88.00
8910;DHT22;4490;49.072;8.804;2023-03-14T07:06:39;12.20;88.10
8910;DHT22;4490;49.072;8.804;2023-03-14T07:09:12;12.30;87.60
8910;DHT22;4490;49.072;8.804;2023-03-14T07:11:38;12.30;87.70
8910;DHT22;4490;49.072;8.804;2023-03-14T07:14:03;12.30;87.20
8910;DHT22;4490;49.072;8.804;2023-03-14T07:16:29;12.30;86.80
8910;DHT22;4490;49.072;8.804;2023-03-14T07:18:58;12.40;86.80
8910;DHT22;4490;49.072;8.804;2023-03-14T07:21:24;12.40;86.80
8910;DHT22;4490;49.072;8.804;2023-03-14T07:23:50;12.40;86.80
8910;DHT22;4490;49.072;8.804;2023-03-14T07:26:16;12.40;86.50
8910;DHT22;4490;49.072;8.804;2023-03-14T07:28:41;12.40;87.40
8910;DHT22;4490;49.072;8.804;2023-03-14T07:31:10;12.50;87.10
8910;DHT22;4490;49.072;8.804;2023-03-14T07:33:39;12.40;87.10
8910;DHT22;4490;49.072;8.804;2023-03-14T07:36:11;12.40;86.70
8910;DHT22;4490;49.072;8.804;2023-03-14T07:38:36;12.40;86.70
8910;DHT22;4490;49.072;8.804;2023-03-14T07:41:04;12.40;86.70
8910;DHT22;4490;49.072;8.804;2023-03-14T07:43:31;12.40;86.60
8910;DHT22;4490;49.072;8.804;2023-03-14T07:46:00;12.30;86.30
8910;DHT22;4490;49.072;8.804;2023-03-14T07:48:26;12.30;86.50
8910;DHT22;4490;49.072;8.804;2023-03-14T07:50:55;12.30;87.40
8910;DHT22;4490;49.072;8.804;2023-03-14T07:53:22;12.30;87.40
8910;DHT22;4490;49.072;8.804;2023-03-14T07:55:52;12.40;87.20
8910;DHT22;4490;49.072;8.804;2023-03-14T07:58:18;12.30;86.70
8910;DHT22;4490;49.072;8.804;2023-03-14T08:00:44;12.40;87.20
8910;DHT22;4490;49.072;8.804;2023-03-14T08:03:10;12.40;87.10
8910;DHT22;4490;49.072;8.804;2023-03-14T08:05:36;12.40;86.80
8910;DHT22;4490;49.072;8.804;2023-03-14T08:08:02;12.40;87.10
8910;DHT22;4490;49.072;8.804;2023-03-14T08:10:28;12.50;87.30
8910;DHT22;4490;49.072;8.804;2023-03-14T08:12:56;12.50;87.30
8910;DHT22;4490;49.072;8.804;2023-03-14T08:15:23;12.50;87.80
8910;DHT22;4490;49.072;8.804;2023-03-14T08:17:50;12.50;87.10
8910;DHT22;4490;49.072;8.804;2023-03-14T08:20:20;12.50;87.00
8910;DHT22;4490;49.072;8.804;2023-03-14T08:22:46;12.60;87.30
8910;DHT22;4490;49.072;8.804;2023-03-14T08:25:12;12.60;86.60
8910;DHT22;4490;49.072;8.804;2023-03-14T08:27:38;12.60;86.60
8910;DHT22;4490;49.072;8.804;2023-03-14T08:30:12;12.60;86.40
8910;DHT22;4490;49.072;8.804;2023-03-14T08:32:38;12.70;86.20
8910;DHT22;4490;49.072;8.804;2023-03-14T08:35:05;12.70;85.70
8910;DHT22;4490;49.072;8.804;2023-03-14T08:37:32;12.70;85.50
8910;DHT22;4490;49.072;8.804;2023-03-14T08:40:01;12.70;85.70
8910;DHT22;4490;49.072;8.804;2023-03-14T08:42:34;12.80;86.20
8910;DHT22;4490;49.072;8.804;2023-03-14T08:45:00;12.80;87.80
8910;DHT22;4490;49.072;8.804;2023-03-14T08:47:26;12.80;88.80
8910;DHT22;4490;49.072;8.804;2023-03-14T08:49:51;12.70;88.90
8910;DHT22;4490;49.072;8.804;2023-03-14T08:52:17;12.60;89.70
8910;DHT22;4490;49.072;8.804;2023-03-14T08:54:46;12.50;90.40
8910;DHT22;4490;49.072;8.804;2023-03-14T08:57:12;12.40;90.80
8910;DHT22;4490;49.072;8.804;2023-03-14T08:59:37;12.30;91.50
8910;DHT22;4490;49.072;8.804;2023-03-14T09:02:03;12.30;92.10
8910;DHT22;4490;49.072;8.804;2023-03-14T09:04:31;12.20;92.20
8910;DHT22;4490;49.072;8.804;2023-03-14T09:06:56;12.20;92.50
8910;DHT22;4490;49.072;8.804;2023-03-14T09:09:24;12.30;92.40
8910;DHT22;4490;49.072;8.804;2023-03-14T09:11:49;12.30;93.00
8910;DHT22;4490;49.072;8.804;2023-03-14T09:14:15;12.30;93.20
8910;DHT22;4490;49.072;8.804;2023-03-14T09:16:40;12.40;92.70
8910;DHT22;4490;49.072;8.804;2023-03-14T09:19:06;12.40;92.30
8910;DHT22;4490;49.072;8.804;2023-03-14T09:21:32;12.50;91.90
8910;DHT22;4490;49.072;8.804;2023-03-14T09:23:57;12.50;91.70
8910;DHT22;4490;49.072;8.804;2023-03-14T09:26:29;12.50;91.40
8910;DHT22;4490;49.072;8.804;2023-03-14T09:28:55;12.50;91.70
8910;DHT22;4490;49.072;8.804;2023-03-14T09:31:20;12.50;91.50
8910;DHT22;4490;49.072;8.804;2023-03-14T09:33:46;12.60;91.30
8910;DHT22;4490;49.072;8.804;2023-03-14T09:36:12;12.50;91.30
8910;DHT22;4490;49.072;8.804;2023-03-14T09:38:38;12.60;91.50
8910;DHT22;4490;49.072;8.804;2023-03-14T09:41:18;12.50;91.50
8910;DHT22;4490;49.072;8.804;2023-03-14T09:43:45;12.60;91.00
8910;DHT22;4490;49.072;8.804;2023-03-14T09:46:12;12.60;90.80
8910;DHT22;4490;49.072;8.804;2023-03-14T09:48:39;12.60;90.70
8910;DHT22;4490;49.072;8.804;2023-03-14T09:51:16;12.60;91.10
8910;DHT22;4490;49.072;8.804;2023-03-14T09:53:47;12.70;91.00
8910;DHT22;4490;49.072;8.804;2023-03-14T09:56:28;12.70;90.80
8910;DHT22;4490;49.072;8.804;2023-03-14T09:59:02;12.70;90.70
8910;DHT22;4490;49.072;8.804;2023-03-14T10:01:31;12.70;90.60
8910;DHT22;4490;49.072;8.804;2023-03-14T10:04:04;12.70;90.50
8910;DHT22;4490;49.072;8.804;2023-03-14T10:06:32;12.80;90.40
8910;DHT22;4490;49.072;8.804;2023-03-14T10:08:58;12.80;90.60
8910;DHT22;4490;49.072;8.804;2023-03-14T10:11:24;12.80;90.30
8910;DHT22;4490;49.072;8.804;2023-03-14T10:14:10;12.80;90.20
8910;DHT22;4490;49.072;8.804;2023-03-14T10:16:42;12.80;90.30
8910;DHT22;4490;49.072;8.804;2023-03-14T10:19:13;12.70;90.90
8910;DHT22;4490;49.072;8.804;2023-03-14T10:21:44;12.60;92.20
8910;DHT22;4490;49.072;8.804;2023-03-14T10:24:19;12.50;92.70
8910;DHT22;4490;49.072;8.804;2023-03-14T10:26:54;12.50;93.30
8910;DHT22;4490;49.072;8.804;2023-03-14T10:29:20;12.40;93.80
8910;DHT22;4490;49.072;8.804;2023-03-14T10:31:58;12.40;94.10
8910;DHT22;4490;49.072;8.804;2023-03-14T10:34:27;12.40;94.50
8910;DHT22;4490;49.072;8.804;2023-03-14T10:36:55;12.40;95.20
8910;DHT22;4490;49.072;8.804;2023-03-14T10:39:27;12.40;95.50
8910;DHT22;4490;49.072;8.804;2023-03-14T10:42:01;12.40;96.80
8910;DHT22;4490;49.072;8.804;2023-03-14T10:44:29;12.30;96.90
8910;DHT22;4490;49.072;8.804;2023-03-14T10:47:01;12.20;97.40
8910;DHT22;4490;49.072;8.804;2023-03-14T10:49:34;12.20;98.40
8910;DHT22;4490;49.072;8.804;2023-03-14T10:52:09;12.10;98.70
8910;DHT22;4490;49.072;8.804;2023-03-14T10:54:38;12.10;98.60
8910;DHT22;4490;49.072;8.804;2023-03-14T10:57:04;12.00;99.80
8910;DHT22;4490;49.072;8.804;2023-03-14T10:59:36;12.00;99.90
8910;DHT22;4490;49.072;8.804;2023-03-14T11:07:44;11.90;99.90
8910;DHT22;4490;49.072;8.804;2023-03-14T11:10:20;11.90;99.90
8910;DHT22;4490;49.072;8.804;2023-03-14T11:15:41;12.00;99.90
8910;DHT22;4490;49.072;8.804;2023-03-14T11:21:35;11.80;99.90
8910;DHT22;4490;49.072;8.804;2023-03-14T11:27:06;11.60;99.90
8910;DHT22;4490;49.072;8.804;2023-03-14T11:29:52;11.60;99.90
8910;DHT22;4490;49.072;8.804;2023-03-14T11:35:25;11.50;99.90
8910;DHT22;4490;49.072;8.804;2023-03-14T11:38:00;11.50;99.90
8910;DHT22;4490;49.072;8.804;2023-03-14T11:40:27;11.40;99.90
8910;DHT22;4490;49.072;8.804;2023-03-14T11:43:15;11.30;99.90
8910;DHT22;4490;49.072;8.804;2023-03-14T11:45:43;11.20;99.90
8910;DHT22;4490;49.072;8.804;2023-03-14T11:48:35;11.10;99.90
8910;DHT22;4490;49.072;8.804;2023-03-14T11:51:09;11.10;99.90
8910;DHT22;4490;49.072;8.804;2023-03-14T11:53:50;11.00;99.90
8910;DHT22;4490;49.072;8.804;2023-03-14T11:56:25;11.00;99.90
8910;DHT22;4490;49.072;8.804;2023-03-14T11:59:00;11.10;99.90
8910;DHT22;4490;49.072;8.804;2023-03-14T12:01:51;11.10;99.90
8910;DHT22;4490;49.072;8.804;2023-03-14T12:06:50;11.10;99.90
8910;DHT22;4490;49.072;8.804;2023-03-14T12:09:18;11.00;99.90
8910;DHT22;4490;49.072;8.804;2023-03-14T12:14:27;10.80;99.90
8910;DHT22;4490;49.072;8.804;2023-03-14T12:17:05;10.70;99.90
8910;DHT22;4490;49.072;8.804;2023-03-14T12:19:34;10.50;99.90
8910;DHT22;4490;49.072;8.804;2023-03-14T12:22:23;10.40;99.90
8910;DHT22;4490;49.072;8.804;2023-03-14T12:24:50;10.30;99.90
8910;DHT22;4490;49.072;8.804;2023-03-14T12:35:40;10.20;99.90
8910;DHT22;4490;49.072;8.804;2023-03-14T12:38:21;10.10;99.90
8910;DHT22;4490;49.072;8.804;2023-03-14T12:43:32;9.90;99.90
8910;DHT22;4490;49.072;8.804;2023-03-14T12:46:26;9.90;99.40
8910;DHT22;4490;49.072;8.804;2023-03-14T12:51:38;10.00;97.40
8910;DHT22;4490;49.072;8.804;2023-03-14T12:59:38;10.10;96.40
8910;DHT22;4490;49.072;8.804;2023-03-14T13:04:35;10.10;94.60
8910;DHT22;4490;49.072;8.804;2023-03-14T13:07:03;10.10;93.60
8910;DHT22;4490;49.072;8.804;2023-03-14T13:11:59;10.10;92.00
8910;DHT22;4490;49.072;8.804;2023-03-14T13:14:28;10.20;91.60
8910;DHT22;4490;49.072;8.804;2023-03-14T13:16:54;10.30;88.80
8910;DHT22;4490;49.072;8.804;2023-03-14T13:19:31;10.40;87.70
8910;DHT22;4490;49.072;8.804;2023-03-14T13:22:03;10.60;81.70
8910;DHT22;4490;49.072;8.804;2023-03-14T13:24:29;10.80;78.60
8910;DHT22;4490;49.072;8.804;2023-03-14T13:26:58;11.00;75.60
8910;DHT22;4490;49.072;8.804;2023-03-14T13:29:28;11.20;76.40
8910;DHT22;4490;49.072;8.804;2023-03-14T13:32:00;11.30;74.30
8910;DHT22;4490;49.072;8.804;2023-03-14T13:34:31;11.30;74.20
8910;DHT22;4490;49.072;8.804;2023-03-14T13:36:57;11.40;73.20
8910;DHT22;4490;49.072;8.804;2023-03-14T13:39:25;11.70;73.10
8910;DHT22;4490;49.072;8.804;2023-03-14T13:41:58;11.90;71.40
8910;DHT22;4490;49.072;8.804;2023-03-14T13:44:39;12.10;69.20
8910;DHT22;4490;49.072;8.804;2023-03-14T13:47:15;12.10;66.90
8910;DHT22;4490;49.072;8.804;2023-03-14T13:49:41;12.00;66.80
8910;DHT22;4490;49.072;8.804;2023-03-14T13:52:30;11.90;67.80
8910;DHT22;4490;49.072;8.804;2023-03-14T13:54:58;11.80;66.50
8910;DHT22;4490;49.072;8.804;2023-03-14T13:57:24;11.70;67.30
8910;DHT22;4490;49.072;8.804;2023-03-14T14:00:04;11.60;67.50
8910;DHT22;4490;49.072;8.804;2023-03-14T14:02:37;11.60;67.60
8910;DHT22;4490;49.072;8.804;2023-03-14T14:05:03;11.50;68.40
8910;DHT22;4490;49.072;8.804;2023-03-14T14:07:30;11.50;68.60
8910;DHT22;4490;49.072;8.804;2023-03-14T14:09:57;11.50;68.00
8910;DHT22;4490;49.072;8.804;2023-03-14T14:17:29;11.10;65.50
8910;DHT22;4490;49.072;8.804;2023-03-14T14:19:56;11.00;66.10
8910;DHT22;4490;49.072;8.804;2023-03-14T14:22:23;11.00;66.40
8910;DHT22;4490;49.072;8.804;2023-03-14T14:24:51;10.90;66.40
8910;DHT22;4490;49.072;8.804;2023-03-14T14:27:18;10.90;66.80
8910;DHT22;4490;49.072;8.804;2023-03-14T14:30:06;10.80;65.70
8910;DHT22;4490;49.072;8.804;2023-03-14T14:32:50;10.80;64.30
8910;DHT22;4490;49.072;8.804;2023-03-14T14:37:51;10.90;66.40
8910;DHT22;4490;49.072;8.804;2023-03-14T14:40:27;11.00;66.10
8910;DHT22;4490;49.072;8.804;2023-03-14T14:42:53;11.00;65.40
8910;DHT22;4490;49.072;8.804;2023-03-14T14:45:23;11.10;65.00
8910;DHT22;4490;49.072;8.804;2023-03-14T14:48:04;11.10;64.70
8910;DHT22;4490;49.072;8.804;2023-03-14T14:53:29;11.10;64.00
8910;DHT22;4490;49.072;8.804;2023-03-14T14:55:58;11.00;63.30
8910;DHT22;4490;49.072;8.804;2023-03-14T14:58:29;11.00;64.60
8910;DHT22;4490;49.072;8.804;2023-03-14T15:00:59;11.00;65.00
8910;DHT22;4490;49.072;8.804;2023-03-14T15:03:31;11.00;64.40
8910;DHT22;4490;49.072;8.804;2023-03-14T15:05:57;11.00;64.00
8910;DHT22;4490;49.072;8.804;2023-03-14T15:08:24;11.00;63.60
8910;DHT22;4490;49.072;8.804;2023-03-14T15:10:50;11.00;64.20
8910;DHT22;4490;49.072;8.804;2023-03-14T15:13:16;11.00;63.20
8910;DHT22;4490;49.072;8.804;2023-03-14T15:15:42;11.00;64.30
8910;DHT22;4490;49.072;8.804;2023-03-14T15:18:17;11.00;63.90
8910;DHT22;4490;49.072;8.804;2023-03-14T15:20:44;11.10;62.80
8910;DHT22;4490;49.072;8.804;2023-03-14T15:23:17;11.10;62.10
8910;DHT22;4490;49.072;8.804;2023-03-14T15:25:43;11.10;63.00
8910;DHT22;4490;49.072;8.804;2023-03-14T15:28:28;11.10;62.70
8910;DHT22;4490;49.072;8.804;2023-03-14T15:30:57;11.10;63.10
8910;DHT22;4490;49.072;8.804;2023-03-14T15:33:23;11.20;63.00
8910;DHT22;4490;49.072;8.804;2023-03-14T15:35:50;11.20;63.50
8910;DHT22;4490;49.072;8.804;2023-03-14T15:38:19;11.20;63.60
8910;DHT22;4490;49.072;8.804;2023-03-14T15:40:51;11.20;63.30
8910;DHT22;4490;49.072;8.804;2023-03-14T15:43:18;11.00;63.50
8910;DHT22;4490;49.072;8.804;2023-03-14T15:45:43;10.90;63.60
8910;DHT22;4490;49.072;8.804;2023-03-14T15:48:16;10.90;64.00
8910;DHT22;4490;49.072;8.804;2023-03-14T15:50:42;10.80;63.80
8910;DHT22;4490;49.072;8.804;2023-03-14T15:53:08;10.70;63.60
8910;DHT22;4490;49.072;8.804;2023-03-14T15:55:34;10.60;64.00
8910;DHT22;4490;49.072;8.804;2023-03-14T15:58:00;10.60;64.50
8910;DHT22;4490;49.072;8.804;2023-03-14T16:00:28;10.60;64.90
8910;DHT22;4490;49.072;8.804;2023-03-14T16:02:54;10.60;65.40
8910;DHT22;4490;49.072;8.804;2023-03-14T16:05:19;10.50;65.60
8910;DHT22;4490;49.072;8.804;2023-03-14T16:07:45;10.50;65.50
8910;DHT22;4490;49.072;8.804;2023-03-14T16:10:12;10.50;66.20
8910;DHT22;4490;49.072;8.804;2023-03-14T16:12:38;10.40;66.10
8910;DHT22;4490;49.072;8.804;2023-03-14T16:15:05;10.40;66.80
8910;DHT22;4490;49.072;8.804;2023-03-14T16:17:31;10.30;66.50
8910;DHT22;4490;49.072;8.804;2023-03-14T16:19:57;10.30;67.10
8910;DHT22;4490;49.072;8.804;2023-03-14T16:22:23;10.30;66.90
8910;DHT22;4490;49.072;8.804;2023-03-14T16:24:49;10.30;66.90
8910;DHT22;4490;49.072;8.804;2023-03-14T16:27:15;10.30;67.20
8910;DHT22;4490;49.072;8.804;2023-03-14T16:29:41;10.30;67.30
8910;DHT22;4490;49.072;8.804;2023-03-14T16:32:08;10.30;67.20
8910;DHT22;4490;49.072;8.804;2023-03-14T16:34:33;10.20;67.20
8910;DHT22;4490;49.072;8.804;2023-03-14T16:36:59;10.20;67.30
8910;DHT22;4490;49.072;8.804;2023-03-14T16:39:25;10.20;67.60
8910;DHT22;4490;49.072;8.804;2023-03-14T16:41:53;10.20;68.20
8910;DHT22;4490;49.072;8.804;2023-03-14T16:44:19;10.10;67.80
8910;DHT22;4490;49.072;8.804;2023-03-14T16:46:44;10.00;67.70
8910;DHT22;4490;49.072;8.804;2023-03-14T16:49:10;10.00;68.30
8910;DHT22;4490;49.072;8.804;2023-03-14T16:51:35;9.90;69.80
8910;DHT22;4490;49.072;8.804;2023-03-14T16:54:01;9.80;70.00
8910;DHT22;4490;49.072;8.804;2023-03-14T16:56:27;9.80;70.30
8910;DHT22;4490;49.072;8.804;2023-03-14T16:58:52;9.70;70.50
8910;DHT22;4490;49.072;8.804;2023-03-14T17:01:18;9.60;70.40
8910;DHT22;4490;49.072;8.804;2023-03-14T17:03:46;9.60;70.90
8910;DHT22;4490;49.072;8.804;2023-03-14T17:06:13;9.60;71.30
8910;DHT22;4490;49.072;8.804;2023-03-14T17:08:40;9.50;71.50
8910;DHT22;4490;49.072;8.804;2023-03-14T17:11:05;9.50;71.80